createdAt,value
2017-08-07T00:01:34.495Z,-82
2017-08-07T00:04:01.393Z,-83
2017-08-07T00:06:27.791Z,-82
2017-08-07T00:08:54.173Z,-83
2017-08-07T00:11:20.620Z,-83
2017-08-07T00:13:47.014Z,-83
2017-08-07T00:16:13.355Z,-81
2017-08-07T00:18:39.734Z,-81
2017-08-07T00:21:06.172Z,-80
2017-08-07T00:23:32.531Z,-81
2017-08-07T00:25:58.883Z,-81
2017-08-07T00:28:25.272Z,-80
2017-08-07T00:30:51.820Z,-82
2017-08-07T00:33:18.551Z,-82
2017-08-07T00:35:44.973Z,-82
2017-08-07T00:38:11.397Z,-82
2017-08-07T00:40:37.772Z,-82
2017-08-07T00:43:04.175Z,-83
2017-08-07T00:45:30.551Z,-82
2017-08-07T00:47:56.923Z,-82
2017-08-07T00:50:23.289Z,-82
2017-08-07T00:52:49.658Z,-82
2017-08-07T00:55:16.120Z,-82
2017-08-07T00:57:42.494Z,-84
2017-08-07T01:00:08.915Z,-84
2017-08-07T01:02:35.297Z,-85
2017-08-07T01:05:01.732Z,-85
2017-08-07T01:07:28.112Z,-85
2017-08-07T01:09:54.670Z,-83
2017-08-07T01:12:21.092Z,-83
2017-08-07T01:14:48.339Z,-83
2017-08-07T01:17:16.311Z,-83
2017-08-07T01:19:43.328Z,-83
2017-08-07T01:22:09.773Z,-83
2017-08-07T01:24:36.456Z,-83
2017-08-07T01:27:02.963Z,-83
2017-08-07T01:29:30.167Z,-83
2017-08-07T01:31:56.567Z,-82
2017-08-07T01:34:22.998Z,-83
2017-08-07T01:36:50.156Z,-83
2017-08-07T01:39:20.286Z,-83
2017-08-07T01:41:46.960Z,-83
2017-08-07T01:44:18.452Z,-83
2017-08-07T01:46:45.060Z,-83
2017-08-07T01:49:11.465Z,-84
2017-08-07T01:51:37.859Z,-84
2017-08-07T01:54:04.277Z,-84
2017-08-07T01:56:30.682Z,-84
2017-08-07T01:58:57.087Z,-84
2017-08-07T02:01:23.540Z,-83
2017-08-07T02:03:49.924Z,-84
2017-08-07T02:06:16.313Z,-85
2017-08-07T02:08:42.707Z,-85
2017-08-07T02:11:09.075Z,-88
2017-08-07T02:13:35.452Z,-87
2017-08-07T02:16:01.877Z,-88
2017-08-07T02:18:28.257Z,-87
2017-08-07T02:20:55.017Z,-88
2017-08-07T02:23:21.404Z,-88
2017-08-07T02:25:47.790Z,-88
2017-08-07T02:28:14.184Z,-87
2017-08-07T02:30:40.572Z,-88
2017-08-07T02:33:06.940Z,-85
2017-08-07T02:35:33.330Z,-85
2017-08-07T02:37:59.708Z,-86
2017-08-07T02:40:26.110Z,-86
2017-08-07T02:42:52.475Z,-86
2017-08-07T02:45:18.860Z,-86
2017-08-07T02:47:45.264Z,-85
2017-08-07T02:50:11.695Z,-85
2017-08-07T02:52:38.107Z,-85
2017-08-07T02:55:04.509Z,-85
2017-08-07T02:57:30.920Z,-85
2017-08-07T02:59:57.299Z,-86
2017-08-07T03:02:23.662Z,-85
2017-08-07T03:04:50.064Z,-85
2017-08-07T03:07:16.448Z,-86
2017-08-07T03:09:42.839Z,-85
2017-08-07T03:12:09.232Z,-85
2017-08-07T03:14:35.620Z,-85
2017-08-07T03:17:01.987Z,-85
2017-08-07T03:19:28.341Z,-85
2017-08-07T03:21:54.730Z,-85
2017-08-07T03:24:21.121Z,-85
2017-08-07T03:26:47.507Z,-85
2017-08-07T03:29:13.956Z,-86
2017-08-07T03:31:40.387Z,-85
2017-08-07T03:34:06.795Z,-85
2017-08-07T03:36:33.173Z,-85
2017-08-07T03:38:59.549Z,-86
2017-08-07T03:41:25.946Z,-85
2017-08-07T03:43:52.332Z,-85
2017-08-07T03:46:18.704Z,-85
2017-08-07T03:48:45.072Z,-85
2017-08-07T03:51:11.474Z,-86
2017-08-07T03:53:37.884Z,-86
2017-08-07T03:56:04.291Z,-85
2017-08-07T03:58:30.679Z,-85
2017-08-07T04:00:57.117Z,-86
2017-08-07T04:03:23.489Z,-85
2017-08-07T04:05:49.867Z,-85
2017-08-07T04:08:16.257Z,-86
2017-08-07T04:10:42.654Z,-85
2017-08-07T04:13:09.057Z,-85
2017-08-07T04:15:35.473Z,-85
2017-08-07T04:18:01.852Z,-85
2017-08-07T04:20:28.234Z,-86
2017-08-07T04:22:54.627Z,-85
2017-08-07T04:25:21.012Z,-86
2017-08-07T04:27:47.398Z,-85
2017-08-07T04:30:13.765Z,-84
2017-08-07T04:32:40.171Z,-84
2017-08-07T04:35:06.555Z,-83
2017-08-07T04:37:32.948Z,-84
2017-08-07T04:39:59.336Z,-84
2017-08-07T04:42:25.787Z,-84
2017-08-07T04:44:52.165Z,-84
2017-08-07T04:47:18.560Z,-84
2017-08-07T04:49:44.920Z,-83
2017-08-07T04:52:11.328Z,-84
2017-08-07T04:54:37.731Z,-84
2017-08-07T04:57:04.156Z,-84
2017-08-07T04:59:30.535Z,-83
2017-08-07T05:01:56.909Z,-84
2017-08-07T05:04:23.295Z,-83
2017-08-07T05:06:49.691Z,-84
2017-08-07T05:09:16.109Z,-83
2017-08-07T05:11:42.484Z,-84
2017-08-07T05:14:08.857Z,-83
2017-08-07T05:16:35.259Z,-83
2017-08-07T05:19:01.654Z,-83
2017-08-07T05:21:28.030Z,-84
2017-08-07T05:23:54.413Z,-84
2017-08-07T05:26:20.812Z,-84
2017-08-07T05:28:48.090Z,-84
2017-08-07T05:31:14.465Z,-84
2017-08-07T05:33:40.827Z,-83
2017-08-07T05:36:07.222Z,-83
2017-08-07T05:38:33.615Z,-84
2017-08-07T05:41:00.025Z,-84
2017-08-07T05:43:26.464Z,-84
2017-08-07T05:45:52.835Z,-84
2017-08-07T05:48:19.239Z,-84
2017-08-07T05:50:45.625Z,-84
2017-08-07T05:53:12.078Z,-84
2017-08-07T05:55:38.473Z,-84
2017-08-07T05:58:04.859Z,-85
2017-08-07T06:00:31.270Z,-86
2017-08-07T06:02:57.639Z,-84
2017-08-07T06:05:24.066Z,-84
2017-08-07T06:07:50.442Z,-84
2017-08-07T06:10:16.853Z,-84
2017-08-07T06:12:43.295Z,-84
2017-08-07T06:15:09.643Z,-84
2017-08-07T06:17:36.005Z,-84
2017-08-07T06:20:02.397Z,-84
2017-08-07T06:22:28.784Z,-85
2017-08-07T06:24:55.198Z,-84
2017-08-07T06:27:21.607Z,-85
2017-08-07T06:29:47.964Z,-84
2017-08-07T06:32:14.364Z,-85
2017-08-07T06:34:40.727Z,-83
2017-08-07T06:37:07.112Z,-84
2017-08-07T06:39:33.473Z,-83
2017-08-07T06:41:59.875Z,-83
2017-08-07T06:44:26.240Z,-84
2017-08-07T06:46:52.605Z,-84
2017-08-07T06:49:18.981Z,-84
2017-08-07T06:51:45.418Z,-84
2017-08-07T06:54:11.835Z,-84
2017-08-07T06:56:38.236Z,-84
2017-08-07T06:59:04.579Z,-84
2017-08-07T07:01:30.960Z,-83
2017-08-07T07:03:57.359Z,-82
2017-08-07T07:06:23.773Z,-81
2017-08-07T07:08:50.153Z,-81
2017-08-07T07:11:16.534Z,-81
2017-08-07T07:13:42.882Z,-81
2017-08-07T07:16:09.249Z,-81
2017-08-07T07:18:35.663Z,-80
2017-08-07T07:21:02.005Z,-82
2017-08-07T07:23:28.342Z,-82
2017-08-07T07:25:54.712Z,-82
2017-08-07T07:28:21.061Z,-82
2017-08-07T07:30:47.417Z,-82
2017-08-07T07:33:13.812Z,-82
2017-08-07T07:35:40.177Z,-82
2017-08-07T07:38:06.561Z,-82
2017-08-07T07:40:32.931Z,-82
2017-08-07T07:42:59.363Z,-82
2017-08-07T07:45:25.747Z,-82
2017-08-07T07:47:52.100Z,-82
2017-08-07T07:50:18.472Z,-82
2017-08-07T07:52:44.855Z,-82
2017-08-07T07:55:11.283Z,-83
2017-08-07T07:57:37.632Z,-83
2017-08-07T08:00:04.013Z,-82
2017-08-07T08:02:30.400Z,-82
2017-08-07T08:04:56.792Z,-82
2017-08-07T08:07:23.203Z,-82
2017-08-07T08:09:49.603Z,-82
2017-08-07T08:12:16.007Z,-82
2017-08-07T08:14:42.385Z,-82
2017-08-07T08:17:08.742Z,-82
2017-08-07T08:19:35.173Z,-83
2017-08-07T08:22:01.541Z,-83
2017-08-07T08:24:27.906Z,-83
2017-08-07T08:26:54.311Z,-83
2017-08-07T08:29:20.692Z,-83
2017-08-07T08:31:47.120Z,-83
2017-08-07T08:34:13.488Z,-83
2017-08-07T08:36:39.859Z,-83
2017-08-07T08:39:06.228Z,-83
2017-08-07T08:41:32.604Z,-82
2017-08-07T08:43:58.958Z,-83
2017-08-07T08:46:25.322Z,-82
2017-08-07T08:48:51.667Z,-82
2017-08-07T08:51:18.034Z,-82
2017-08-07T08:53:44.429Z,-83
2017-08-07T08:56:10.815Z,-82
2017-08-07T08:58:37.232Z,-82
2017-08-07T09:01:03.614Z,-83
2017-08-07T09:03:30.037Z,-82
2017-08-07T09:05:56.442Z,-82
2017-08-07T09:08:22.886Z,-83
2017-08-07T09:10:49.256Z,-83
2017-08-07T09:13:15.641Z,-83
2017-08-07T09:15:42.097Z,-83
2017-08-07T09:18:08.489Z,-83
2017-08-07T09:20:34.891Z,-83
2017-08-07T09:23:01.260Z,-83
2017-08-07T09:25:27.640Z,-83
2017-08-07T09:27:54.016Z,-83
2017-08-07T09:30:20.393Z,-83
2017-08-07T09:32:46.781Z,-83
2017-08-07T09:35:13.142Z,-83
2017-08-07T09:37:39.537Z,-85
2017-08-07T09:40:05.916Z,-85
2017-08-07T09:42:32.327Z,-82
2017-08-07T09:44:58.702Z,-82
2017-08-07T09:47:25.079Z,-83
2017-08-07T09:49:51.482Z,-83
2017-08-07T09:52:17.880Z,-82
2017-08-07T09:54:44.251Z,-82
2017-08-07T09:57:10.666Z,-82
2017-08-07T09:59:37.096Z,-82
2017-08-07T10:02:03.502Z,-83
2017-08-07T10:04:29.879Z,-82
2017-08-07T10:06:56.241Z,-85
2017-08-07T10:09:22.640Z,-86
2017-08-07T10:11:49.019Z,-85
2017-08-07T10:14:15.423Z,-85
2017-08-07T10:16:41.794Z,-85
2017-08-07T10:19:08.177Z,-85
2017-08-07T10:21:34.576Z,-85
2017-08-07T10:24:00.987Z,-85
2017-08-07T10:26:27.357Z,-86
2017-08-07T10:28:53.755Z,-86
2017-08-07T10:31:20.114Z,-85
2017-08-07T10:33:46.510Z,-86
2017-08-07T10:36:12.908Z,-87
2017-08-07T10:38:39.347Z,-86
2017-08-07T10:41:05.758Z,-87
2017-08-07T10:43:32.138Z,-87
2017-08-07T10:45:58.515Z,-86
2017-08-07T10:48:24.875Z,-86
2017-08-07T10:50:51.261Z,-86
2017-08-07T10:53:17.671Z,-86
2017-08-07T10:55:44.054Z,-86
2017-08-07T10:58:10.431Z,-86
2017-08-07T11:00:36.806Z,-86
2017-08-07T11:03:03.181Z,-86
2017-08-07T11:05:29.568Z,-84
2017-08-07T11:07:55.941Z,-86
2017-08-07T11:10:22.338Z,-86
2017-08-07T11:12:48.699Z,-86
2017-08-07T11:15:15.111Z,-86
2017-08-07T11:17:41.485Z,-86
2017-08-07T11:20:07.839Z,-86
2017-08-07T11:22:34.198Z,-86
2017-08-07T11:25:00.549Z,-86
2017-08-07T11:27:26.904Z,-86
2017-08-07T11:29:53.320Z,-86
2017-08-07T11:32:19.707Z,-87
2017-08-07T11:34:46.089Z,-86
2017-08-07T11:37:12.545Z,-84
2017-08-07T11:39:38.946Z,-86
2017-08-07T11:42:05.322Z,-86
2017-08-07T11:44:31.720Z,-86
2017-08-07T11:46:58.131Z,-84
2017-08-07T11:49:24.517Z,-82
2017-08-07T11:51:50.892Z,-86
2017-08-07T11:54:17.310Z,-85
2017-08-07T11:56:43.734Z,-83
2017-08-07T11:59:10.120Z,-83
2017-08-07T12:01:36.504Z,-83
2017-08-07T12:04:02.917Z,-86
2017-08-07T12:06:29.570Z,-85
2017-08-07T12:08:55.952Z,-86
2017-08-07T12:11:22.341Z,-83
2017-08-07T12:13:48.721Z,-82
2017-08-07T12:16:15.076Z,-84
2017-08-07T12:18:41.438Z,-83
2017-08-07T12:21:07.798Z,-86
2017-08-07T12:23:34.168Z,-83
2017-08-07T12:26:00.531Z,-82
2017-08-07T12:28:26.928Z,-82
2017-08-07T12:30:53.324Z,-82
2017-08-07T12:33:19.742Z,-83
2017-08-07T12:35:46.182Z,-83
2017-08-07T12:38:12.573Z,-83
2017-08-07T12:40:38.951Z,-84
2017-08-07T12:43:05.342Z,-83
2017-08-07T12:45:31.783Z,-83
2017-08-07T12:47:58.196Z,-83
2017-08-07T12:50:24.574Z,-83
2017-08-07T12:52:50.947Z,-83
2017-08-07T12:55:17.430Z,-82
2017-08-07T12:57:43.804Z,-84
2017-08-07T13:00:10.194Z,-82
2017-08-07T13:02:36.615Z,-83
2017-08-07T13:05:03.023Z,-83
2017-08-07T13:07:29.435Z,-82
2017-08-07T13:09:56.208Z,-81
2017-08-07T13:12:22.620Z,-82
2017-08-07T13:14:49.025Z,-82
2017-08-07T13:17:15.413Z,-82
2017-08-07T13:19:41.775Z,-82
2017-08-07T13:22:08.169Z,-82
2017-08-07T13:24:34.834Z,-81
2017-08-07T13:27:01.194Z,-81
2017-08-07T13:29:27.603Z,-81
2017-08-07T13:31:54.008Z,-84
2017-08-07T13:34:20.377Z,-84
2017-08-07T13:36:46.768Z,-85
2017-08-07T13:39:13.534Z,-81
2017-08-07T13:41:39.987Z,-83
2017-08-07T13:44:06.391Z,-83
2017-08-07T13:46:32.781Z,-81
2017-08-07T13:48:59.160Z,-81
2017-08-07T13:51:25.553Z,-81
2017-08-07T13:53:51.923Z,-82
2017-08-07T13:56:18.315Z,-81
2017-08-07T13:58:44.697Z,-81
2017-08-07T14:01:11.066Z,-81
2017-08-07T14:03:37.460Z,-81
2017-08-07T14:06:03.901Z,-82
2017-08-07T14:08:30.333Z,-83
2017-08-07T14:10:56.726Z,-82
2017-08-07T14:13:23.403Z,-81
2017-08-07T14:15:49.781Z,-82
2017-08-07T14:18:16.158Z,-81
2017-08-07T14:20:42.534Z,-81
2017-08-07T14:23:08.902Z,-81
2017-08-07T14:25:35.296Z,-81
2017-08-07T14:28:01.719Z,-82
2017-08-07T14:30:28.708Z,-81
2017-08-07T14:32:55.157Z,-82
2017-08-07T14:35:21.538Z,-82
2017-08-07T14:37:47.937Z,-85
2017-08-07T14:40:14.296Z,-87
2017-08-07T14:42:40.686Z,-81
2017-08-07T14:45:07.149Z,-81
2017-08-07T14:47:33.530Z,-81
2017-08-07T14:49:59.961Z,-81
2017-08-07T14:52:26.344Z,-81
2017-08-07T14:54:52.787Z,-81
2017-08-07T14:57:19.174Z,-81
2017-08-07T14:59:45.543Z,-82
2017-08-07T15:02:11.945Z,-81
2017-08-07T15:04:38.330Z,-82
2017-08-07T15:07:04.732Z,-82
2017-08-07T15:09:31.103Z,-81
2017-08-07T15:11:57.492Z,-82
2017-08-07T15:14:23.868Z,-81
2017-08-07T15:16:50.262Z,-81
2017-08-07T15:19:16.633Z,-82
2017-08-07T15:21:43.014Z,-82
2017-08-07T15:24:09.381Z,-82
2017-08-07T15:26:35.741Z,-83
2017-08-07T15:29:02.112Z,-81
2017-08-07T15:31:28.981Z,-81
2017-08-07T15:33:55.368Z,-82
2017-08-07T15:36:21.829Z,-81
2017-08-07T15:38:48.529Z,-81
2017-08-07T15:41:14.891Z,-81
2017-08-07T15:43:41.302Z,-81
2017-08-07T15:46:07.734Z,-80
2017-08-07T15:48:34.121Z,-80
2017-08-07T15:51:00.519Z,-81
2017-08-07T15:53:26.894Z,-82
2017-08-07T15:55:53.284Z,-83
2017-08-07T15:58:19.685Z,-82
2017-08-07T16:00:46.069Z,-82
2017-08-07T16:03:12.895Z,-82
2017-08-07T16:05:39.369Z,-81
2017-08-07T16:08:05.760Z,-81
2017-08-07T16:10:32.134Z,-82
2017-08-07T16:12:58.588Z,-82
2017-08-07T16:15:24.988Z,-82
2017-08-07T16:17:51.385Z,-81
2017-08-07T16:20:17.758Z,-82
2017-08-07T16:22:44.591Z,-82
2017-08-07T16:25:11.221Z,-82
2017-08-07T16:27:37.624Z,-81
2017-08-07T16:30:04.083Z,-82
2017-08-07T16:32:30.447Z,-84
2017-08-07T16:34:56.837Z,-83
2017-08-07T16:37:23.266Z,-83
2017-08-07T16:39:49.620Z,-82
2017-08-07T16:42:16.010Z,-81
2017-08-07T16:44:42.391Z,-81
2017-08-07T16:47:08.765Z,-81
2017-08-07T16:49:35.165Z,-80
2017-08-07T16:52:01.534Z,-80
2017-08-07T16:54:27.967Z,-81
2017-08-07T16:56:54.386Z,-80
2017-08-07T16:59:20.784Z,-80
2017-08-07T17:01:47.168Z,-81
2017-08-07T17:04:13.566Z,-82
2017-08-07T17:06:39.964Z,-82
2017-08-07T17:09:06.367Z,-82
2017-08-07T17:11:32.770Z,-82
2017-08-07T17:13:59.164Z,-83
2017-08-07T17:16:25.553Z,-82
2017-08-07T17:18:51.922Z,-81
2017-08-07T17:21:18.332Z,-81
2017-08-07T17:23:44.727Z,-81
2017-08-07T17:26:11.118Z,-81
2017-08-07T17:28:37.475Z,-81
2017-08-07T17:31:03.871Z,-81
2017-08-07T17:33:30.225Z,-81
2017-08-07T17:35:56.605Z,-81
2017-08-07T17:38:22.987Z,-81
2017-08-07T17:40:49.393Z,-82
2017-08-07T17:43:15.787Z,-81
2017-08-07T17:45:42.208Z,-82
2017-08-07T17:48:08.869Z,-82
2017-08-07T17:50:35.255Z,-81
2017-08-07T17:53:01.631Z,-82
2017-08-07T17:55:28.020Z,-83
2017-08-07T17:57:54.681Z,-81
2017-08-07T18:00:21.072Z,-83
2017-08-07T18:02:47.462Z,-82
2017-08-07T18:05:14.088Z,-82
2017-08-07T18:07:41.035Z,-81
2017-08-07T18:10:07.516Z,-81
2017-08-07T18:12:34.313Z,-81
2017-08-07T18:15:01.426Z,-83
2017-08-07T18:17:28.066Z,-82
2017-08-07T18:19:55.077Z,-81
2017-08-07T18:22:21.963Z,-81
2017-08-07T18:24:48.372Z,-81
2017-08-07T18:27:14.777Z,-81
2017-08-07T18:29:41.142Z,-80
2017-08-07T18:32:07.570Z,-81
2017-08-07T18:34:33.972Z,-81
2017-08-07T18:37:01.067Z,-81
2017-08-07T18:39:27.515Z,-80
2017-08-07T18:41:54.297Z,-80
2017-08-07T18:44:20.753Z,-81
2017-08-07T18:46:47.177Z,-81
2017-08-07T18:49:13.545Z,-81
2017-08-07T18:51:39.976Z,-81
2017-08-07T18:54:06.355Z,-82
2017-08-07T18:56:32.746Z,-81
2017-08-07T18:58:59.141Z,-81
2017-08-07T19:01:25.539Z,-83
2017-08-07T19:03:51.910Z,-82
2017-08-07T19:06:18.372Z,-82
2017-08-07T19:08:44.752Z,-82
2017-08-07T19:11:11.146Z,-82
2017-08-07T19:13:37.549Z,-83
2017-08-07T19:16:03.972Z,-83
2017-08-07T19:18:30.400Z,-86
2017-08-07T19:20:56.816Z,-84
2017-08-07T19:23:23.271Z,-84
2017-08-07T19:25:49.679Z,-83
2017-08-07T19:28:16.074Z,-83
2017-08-07T19:30:42.481Z,-83
2017-08-07T19:33:08.903Z,-82
2017-08-07T19:35:35.293Z,-82
2017-08-07T19:38:02.157Z,-82
2017-08-07T19:40:28.548Z,-82
2017-08-07T19:42:54.935Z,-83
2017-08-07T19:45:21.330Z,-83
2017-08-07T19:47:47.704Z,-83
2017-08-07T19:50:14.105Z,-81
2017-08-07T19:52:40.485Z,-81
2017-08-07T19:55:06.912Z,-81
2017-08-07T19:57:33.328Z,-80
2017-08-07T19:59:59.723Z,-81
2017-08-07T20:02:26.141Z,-81
2017-08-07T20:04:52.511Z,-81
2017-08-07T20:07:19.448Z,-81
2017-08-07T20:09:46.018Z,-81
2017-08-07T20:12:12.605Z,-81
2017-08-07T20:14:38.982Z,-82
2017-08-07T20:17:05.713Z,-82
2017-08-07T20:19:32.161Z,-81
2017-08-07T20:21:58.671Z,-82
2017-08-07T20:24:25.106Z,-82
2017-08-07T20:26:51.510Z,-82
2017-08-07T20:29:18.141Z,-82
2017-08-07T20:31:44.530Z,-81
2017-08-07T20:34:10.935Z,-81
2017-08-07T20:36:37.713Z,-81
2017-08-07T20:39:04.153Z,-81
2017-08-07T20:41:30.680Z,-81
2017-08-07T20:43:57.120Z,-81
2017-08-07T20:46:23.485Z,-80
2017-08-07T20:48:50.389Z,-81
2017-08-07T20:51:16.791Z,-81
2017-08-07T20:53:43.645Z,-80
2017-08-07T20:56:10.583Z,-81
2017-08-07T20:58:37.553Z,-80
2017-08-07T21:01:04.362Z,-81
2017-08-07T21:03:31.197Z,-81
2017-08-07T21:06:01.279Z,-83
2017-08-07T21:08:31.500Z,-80
2017-08-07T21:10:58.130Z,-80
2017-08-07T21:13:24.524Z,-80
2017-08-07T21:15:50.964Z,-80
2017-08-07T21:18:17.616Z,-81
2017-08-07T21:20:43.975Z,-80
2017-08-07T21:23:10.587Z,-80
2017-08-07T21:25:36.973Z,-80
2017-08-07T21:28:03.338Z,-80
2017-08-07T21:30:29.731Z,-81
2017-08-07T21:32:56.581Z,-81
2017-08-07T21:35:22.937Z,-81
2017-08-07T21:37:49.299Z,-81
2017-08-07T21:40:16.053Z,-81
2017-08-07T21:42:42.920Z,-82
2017-08-07T21:45:09.275Z,-81
2017-08-07T21:47:35.824Z,-81
2017-08-07T21:50:02.350Z,-80
2017-08-07T21:52:28.744Z,-81
2017-08-07T21:54:55.189Z,-82
2017-08-07T21:57:21.708Z,-81
2017-08-07T21:59:48.124Z,-81
2017-08-07T22:02:14.499Z,-81
2017-08-07T22:04:40.857Z,-81
2017-08-07T22:07:07.381Z,-81
2017-08-07T22:09:33.732Z,-81
2017-08-07T22:12:00.070Z,-81
2017-08-07T22:14:26.591Z,-81
2017-08-07T22:16:52.941Z,-81
2017-08-07T22:19:19.313Z,-81
2017-08-07T22:21:45.659Z,-81
2017-08-07T22:24:12.223Z,-81
2017-08-07T22:26:38.588Z,-81
2017-08-07T22:29:04.954Z,-81
2017-08-07T22:31:31.457Z,-81
2017-08-07T22:33:58.246Z,-81
2017-08-07T22:36:24.594Z,-82
2017-08-07T22:38:50.980Z,-81
2017-08-07T22:41:17.437Z,-81
2017-08-07T22:43:43.823Z,-81
2017-08-07T22:46:10.155Z,-82
2017-08-07T22:48:36.665Z,-81
2017-08-07T22:51:03.011Z,-82
2017-08-07T22:53:29.356Z,-82
2017-08-07T22:55:55.708Z,-82
2017-08-07T22:58:22.083Z,-81
2017-08-07T23:00:48.447Z,-81
2017-08-07T23:03:14.829Z,-82
2017-08-07T23:05:41.370Z,-82
2017-08-07T23:08:08.253Z,-82
2017-08-07T23:10:34.609Z,-82
2017-08-07T23:13:01.056Z,-82
2017-08-07T23:15:27.689Z,-82
2017-08-07T23:17:54.566Z,-82
2017-08-07T23:20:20.942Z,-82
2017-08-07T23:22:47.291Z,-82
2017-08-07T23:25:13.653Z,-82
2017-08-07T23:27:40.020Z,-82
2017-08-07T23:30:06.456Z,-82
2017-08-07T23:32:32.837Z,-82
2017-08-07T23:34:59.196Z,-82
2017-08-07T23:37:25.582Z,-82
2017-08-07T23:39:51.969Z,-81
2017-08-07T23:42:18.340Z,-81
2017-08-07T23:44:44.901Z,-81
2017-08-07T23:47:11.254Z,-81
2017-08-07T23:49:37.605Z,-81
2017-08-07T23:52:04.100Z,-82
2017-08-07T23:54:31.121Z,-79
2017-08-07T23:56:57.632Z,-79
2017-08-07T23:59:24.036Z,-78
